VCBI/CMB METAR and TAF weather

Enter ICAO airport designator
Station Type Date Time Source
VCBI METAR 2019/02/23 00:10 UTC NOAA

VCBI 230010Z 06005KT CAVOK 21/18 Q1010 NOSIG


Station Type Date Time Source
VCBI Decoded METAR 2019/02/23 00:10 UTC NOAA

Katunayake, Sri Lanka (VCBI) 07-10N 079-53E 8M
Feb 22, 2019 - 07:10 PM EST / 2019.02.23 0010 UTC
Wind: from the ENE (060 degrees) at 6 MPH (5 KT):0
Visibility: greater than 7 mile(s):0
Temperature: 69 F (21 C)
Dew Point: 64 F (18 C)
Relative Humidity: 82%
Pressure (altimeter): 29.83 in. Hg (1010 hPa)
ob: VCBI 230010Z 06005KT CAVOK 21/18 Q1010 NOSIG
cycle: 0

Station Type Date Time Source
VCBI TAF 2019/02/22 18:03 UTC NOAA

TAF TAF VCBI 221700Z 2218/2324 04010KT 9999 FEW020 TX33/2307Z TN23/2300Z
BECMG 2310/2312 29005KT


Example: see airport list